sensor_id;sensor_type;location;lat;lon;timestamp;P1;durP1;ratioP1;P2;durP2;ratioP2
16837;SDS011;19510;54.486;9.046;2022-12-01T00:01:09;31.30;;;14.20;;
16837;SDS011;19510;54.486;9.046;2022-12-01T00:03:37;30.43;;;14.47;;
16837;SDS011;19510;54.486;9.046;2022-12-01T00:06:04;37.77;;;14.93;;
16837;SDS011;19510;54.486;9.046;2022-12-01T00:08:36;32.70;;;14.80;;
16837;SDS011;19510;54.486;9.046;2022-12-01T00:11:24;32.70;;;15.20;;
16837;SDS011;19510;54.486;9.046;2022-12-01T00:13:52;30.30;;;14.70;;
16837;SDS011;19510;54.486;9.046;2022-12-01T00:16:20;35.23;;;15.80;;
16837;SDS011;19510;54.486;9.046;2022-12-01T00:18:50;35.03;;;14.90;;
16837;SDS011;19510;54.486;9.046;2022-12-01T00:21:20;32.57;;;14.90;;
16837;SDS011;19510;54.486;9.046;2022-12-01T00:23:49;30.83;;;14.33;;
16837;SDS011;19510;54.486;9.046;2022-12-01T00:26:19;31.13;;;15.07;;
16837;SDS011;19510;54.486;9.046;2022-12-01T00:28:48;32.63;;;15.20;;
16837;SDS011;19510;54.486;9.046;2022-12-01T00:31:15;32.87;;;15.80;;
16837;SDS011;19510;54.486;9.046;2022-12-01T00:33:43;29.77;;;13.93;;
16837;SDS011;19510;54.486;9.046;2022-12-01T00:36:11;29.90;;;13.83;;
16837;SDS011;19510;54.486;9.046;2022-12-01T00:38:37;36.37;;;15.83;;
16837;SDS011;19510;54.486;9.046;2022-12-01T00:41:03;32.07;;;14.73;;
16837;SDS011;19510;54.486;9.046;2022-12-01T00:43:31;35.47;;;14.87;;
16837;SDS011;19510;54.486;9.046;2022-12-01T00:45:59;31.43;;;15.47;;
16837;SDS011;19510;54.486;9.046;2022-12-01T00:48:25;34.53;;;15.50;;
16837;SDS011;19510;54.486;9.046;2022-12-01T00:50:51;41.17;;;15.93;;
16837;SDS011;19510;54.486;9.046;2022-12-01T00:53:23;40.80;;;17.30;;
16837;SDS011;19510;54.486;9.046;2022-12-01T00:55:52;37.80;;;15.90;;
16837;SDS011;19510;54.486;9.046;2022-12-01T00:58:21;35.47;;;16.20;;
16837;SDS011;19510;54.486;9.046;2022-12-01T01:00:47;35.30;;;15.77;;
16837;SDS011;19510;54.486;9.046;2022-12-01T01:03:22;36.20;;;14.67;;
16837;SDS011;19510;54.486;9.046;2022-12-01T01:05:48;40.00;;;16.70;;
16837;SDS011;19510;54.486;9.046;2022-12-01T01:08:18;34.03;;;16.27;;
16837;SDS011;19510;54.486;9.046;2022-12-01T01:10:47;38.57;;;16.33;;
16837;SDS011;19510;54.486;9.046;2022-12-01T01:13:13;40.17;;;17.23;;
16837;SDS011;19510;54.486;9.046;2022-12-01T01:15:39;41.67;;;17.13;;
16837;SDS011;19510;54.486;9.046;2022-12-01T01:18:10;44.60;;;17.50;;
16837;SDS011;19510;54.486;9.046;2022-12-01T01:20:36;43.43;;;17.57;;
16837;SDS011;19510;54.486;9.046;2022-12-01T01:23:01;40.57;;;16.33;;
16837;SDS011;19510;54.486;9.046;2022-12-01T01:25:30;38.83;;;16.40;;
16837;SDS011;19510;54.486;9.046;2022-12-01T01:27:57;35.33;;;15.97;;
16837;SDS011;19510;54.486;9.046;2022-12-01T01:30:25;37.77;;;16.47;;
16837;SDS011;19510;54.486;9.046;2022-12-01T01:32:51;37.43;;;15.43;;
16837;SDS011;19510;54.486;9.046;2022-12-01T01:35:16;39.00;;;15.93;;
16837;SDS011;19510;54.486;9.046;2022-12-01T01:37:42;40.20;;;16.63;;
16837;SDS011;19510;54.486;9.046;2022-12-01T01:40:08;40.77;;;16.60;;
16837;SDS011;19510;54.486;9.046;2022-12-01T01:42:36;37.07;;;15.70;;
16837;SDS011;19510;54.486;9.046;2022-12-01T01:45:10;35.23;;;15.70;;
16837;SDS011;19510;54.486;9.046;2022-12-01T01:47:45;40.33;;;16.80;;
16837;SDS011;19510;54.486;9.046;2022-12-01T01:50:13;35.77;;;15.87;;
16837;SDS011;19510;54.486;9.046;2022-12-01T01:52:42;33.67;;;15.27;;
16837;SDS011;19510;54.486;9.046;2022-12-01T01:55:15;41.20;;;17.17;;
16837;SDS011;19510;54.486;9.046;2022-12-01T01:57:46;38.77;;;17.00;;
16837;SDS011;19510;54.486;9.046;2022-12-01T02:00:13;43.00;;;17.53;;
16837;SDS011;19510;54.486;9.046;2022-12-01T02:02:42;39.87;;;16.73;;
16837;SDS011;19510;54.486;9.046;2022-12-01T02:05:17;41.13;;;17.57;;
16837;SDS011;19510;54.486;9.046;2022-12-01T02:07:51;43.30;;;17.60;;
16837;SDS011;19510;54.486;9.046;2022-12-01T02:10:19;49.10;;;18.40;;
16837;SDS011;19510;54.486;9.046;2022-12-01T02:15:32;45.70;;;19.37;;
16837;SDS011;19510;54.486;9.046;2022-12-01T02:18:33;43.50;;;19.43;;
16837;SDS011;19510;54.486;9.046;2022-12-01T02:27:13;49.80;;;20.40;;
16837;SDS011;19510;54.486;9.046;2022-12-01T02:40:42;49.63;;;21.50;;
16837;SDS011;19510;54.486;9.046;2022-12-01T02:43:29;44.03;;;21.47;;
16837;SDS011;19510;54.486;9.046;2022-12-01T02:46:04;52.60;;;21.37;;
16837;SDS011;19510;54.486;9.046;2022-12-01T02:48:45;51.13;;;21.17;;
16837;SDS011;19510;54.486;9.046;2022-12-01T02:51:30;50.13;;;21.97;;
16837;SDS011;19510;54.486;9.046;2022-12-01T02:53:57;46.00;;;21.67;;
16837;SDS011;19510;54.486;9.046;2022-12-01T02:56:24;43.13;;;19.63;;
16837;SDS011;19510;54.486;9.046;2022-12-01T02:58:50;46.60;;;21.13;;
16837;SDS011;19510;54.486;9.046;2022-12-01T03:11:36;44.13;;;20.47;;
16837;SDS011;19510;54.486;9.046;2022-12-01T03:16:51;49.03;;;20.87;;
16837;SDS011;19510;54.486;9.046;2022-12-01T03:19:37;45.20;;;20.53;;
16837;SDS011;19510;54.486;9.046;2022-12-01T03:22:12;43.73;;;21.53;;
16837;SDS011;19510;54.486;9.046;2022-12-01T03:24:47;49.07;;;21.40;;
16837;SDS011;19510;54.486;9.046;2022-12-01T03:27:18;46.60;;;21.43;;
16837;SDS011;19510;54.486;9.046;2022-12-01T03:29:52;45.57;;;21.87;;
16837;SDS011;19510;54.486;9.046;2022-12-01T03:32:36;44.93;;;20.47;;
16837;SDS011;19510;54.486;9.046;2022-12-01T03:35:12;50.13;;;22.03;;
16837;SDS011;19510;54.486;9.046;2022-12-01T03:38:30;46.17;;;21.63;;
16837;SDS011;19510;54.486;9.046;2022-12-01T03:40:40;50.77;;;22.17;;
16837;SDS011;19510;54.486;9.046;2022-12-01T03:43:09;52.87;;;22.97;;
16837;SDS011;19510;54.486;9.046;2022-12-01T03:45:50;51.10;;;22.80;;
16837;SDS011;19510;54.486;9.046;2022-12-01T03:48:23;53.03;;;23.93;;
16837;SDS011;19510;54.486;9.046;2022-12-01T03:56:26;52.00;;;23.17;;
16837;SDS011;19510;54.486;9.046;2022-12-01T03:58:57;48.77;;;22.77;;
16837;SDS011;19510;54.486;9.046;2022-12-01T04:01:28;51.97;;;23.93;;
16837;SDS011;19510;54.486;9.046;2022-12-01T04:04:08;51.23;;;23.20;;
16837;SDS011;19510;54.486;9.046;2022-12-01T04:06:36;51.83;;;23.63;;
16837;SDS011;19510;54.486;9.046;2022-12-01T04:09:03;59.50;;;25.87;;
16837;SDS011;19510;54.486;9.046;2022-12-01T04:11:29;54.17;;;23.13;;
16837;SDS011;19510;54.486;9.046;2022-12-01T04:14:13;56.13;;;24.40;;
16837;SDS011;19510;54.486;9.046;2022-12-01T04:16:39;55.83;;;24.07;;
16837;SDS011;19510;54.486;9.046;2022-12-01T04:19:05;55.53;;;24.47;;
16837;SDS011;19510;54.486;9.046;2022-12-01T04:21:33;55.73;;;24.97;;
16837;SDS011;19510;54.486;9.046;2022-12-01T04:23:58;54.40;;;25.67;;
16837;SDS011;19510;54.486;9.046;2022-12-01T04:26:30;57.23;;;25.17;;
16837;SDS011;19510;54.486;9.046;2022-12-01T04:29:05;61.43;;;25.77;;
16837;SDS011;19510;54.486;9.046;2022-12-01T04:31:32;56.83;;;25.40;;
16837;SDS011;19510;54.486;9.046;2022-12-01T04:34:00;60.27;;;25.90;;
16837;SDS011;19510;54.486;9.046;2022-12-01T04:36:28;55.20;;;24.90;;
16837;SDS011;19510;54.486;9.046;2022-12-01T04:38:57;62.50;;;26.23;;
16837;SDS011;19510;54.486;9.046;2022-12-01T04:41:22;58.27;;;23.93;;
16837;SDS011;19510;54.486;9.046;2022-12-01T04:43:53;60.33;;;25.10;;
16837;SDS011;19510;54.486;9.046;2022-12-01T04:46:20;53.20;;;24.00;;
16837;SDS011;19510;54.486;9.046;2022-12-01T04:48:46;56.93;;;23.83;;
16837;SDS011;19510;54.486;9.046;2022-12-01T04:51:14;54.00;;;23.27;;
16837;SDS011;19510;54.486;9.046;2022-12-01T04:53:40;55.13;;;23.83;;
16837;SDS011;19510;54.486;9.046;2022-12-01T04:56:06;56.83;;;24.23;;
16837;SDS011;19510;54.486;9.046;2022-12-01T04:58:32;55.13;;;24.10;;
16837;SDS011;19510;54.486;9.046;2022-12-01T05:01:02;54.37;;;24.07;;
16837;SDS011;19510;54.486;9.046;2022-12-01T05:03:36;52.37;;;22.23;;
16837;SDS011;19510;54.486;9.046;2022-12-01T05:06:06;50.07;;;22.60;;
16837;SDS011;19510;54.486;9.046;2022-12-01T05:08:34;47.77;;;22.60;;
16837;SDS011;19510;54.486;9.046;2022-12-01T05:11:00;46.80;;;20.87;;
16837;SDS011;19510;54.486;9.046;2022-12-01T05:13:26;51.83;;;21.40;;
16837;SDS011;19510;54.486;9.046;2022-12-01T05:15:52;53.17;;;24.30;;
16837;SDS011;19510;54.486;9.046;2022-12-01T05:18:23;49.13;;;22.47;;
16837;SDS011;19510;54.486;9.046;2022-12-01T05:20:48;50.53;;;22.57;;
16837;SDS011;19510;54.486;9.046;2022-12-01T05:23:23;50.47;;;22.10;;
16837;SDS011;19510;54.486;9.046;2022-12-01T05:25:50;50.20;;;21.67;;
16837;SDS011;19510;54.486;9.046;2022-12-01T05:28:16;47.67;;;21.87;;
16837;SDS011;19510;54.486;9.046;2022-12-01T05:30:42;54.97;;;21.17;;
16837;SDS011;19510;54.486;9.046;2022-12-01T05:33:08;47.80;;;21.00;;
16837;SDS011;19510;54.486;9.046;2022-12-01T05:35:34;49.83;;;22.50;;
16837;SDS011;19510;54.486;9.046;2022-12-01T05:38:02;52.17;;;22.87;;
16837;SDS011;19510;54.486;9.046;2022-12-01T05:40:28;45.03;;;19.53;;
16837;SDS011;19510;54.486;9.046;2022-12-01T05:42:55;48.23;;;21.60;;
16837;SDS011;19510;54.486;9.046;2022-12-01T05:45:24;50.37;;;21.30;;
16837;SDS011;19510;54.486;9.046;2022-12-01T05:47:55;51.67;;;22.47;;
16837;SDS011;19510;54.486;9.046;2022-12-01T05:50:26;46.93;;;21.20;;
16837;SDS011;19510;54.486;9.046;2022-12-01T05:52:54;49.22;;;20.58;;
16837;SDS011;19510;54.486;9.046;2022-12-01T05:55:19;51.13;;;21.47;;
16837;SDS011;19510;54.486;9.046;2022-12-01T05:57:45;54.03;;;21.63;;
16837;SDS011;19510;54.486;9.046;2022-12-01T06:00:11;47.87;;;21.23;;
16837;SDS011;19510;54.486;9.046;2022-12-01T06:02:41;50.70;;;23.42;;
16837;SDS011;19510;54.486;9.046;2022-12-01T06:05:07;43.37;;;19.30;;
16837;SDS011;19510;54.486;9.046;2022-12-01T06:07:33;45.97;;;20.63;;
16837;SDS011;19510;54.486;9.046;2022-12-01T06:10:00;48.63;;;22.15;;
16837;SDS011;19510;54.486;9.046;2022-12-01T06:12:31;53.13;;;20.43;;
16837;SDS011;19510;54.486;9.046;2022-12-01T06:14:57;47.22;;;20.83;;
16837;SDS011;19510;54.486;9.046;2022-12-01T06:17:25;45.90;;;20.83;;
16837;SDS011;19510;54.486;9.046;2022-12-01T06:19:53;44.87;;;20.77;;
16837;SDS011;19510;54.486;9.046;2022-12-01T06:22:19;51.07;;;22.73;;
16837;SDS011;19510;54.486;9.046;2022-12-01T06:24:50;47.47;;;21.87;;
16837;SDS011;19510;54.486;9.046;2022-12-01T06:27:32;49.77;;;22.07;;
16837;SDS011;19510;54.486;9.046;2022-12-01T06:30:10;48.38;;;21.67;;
16837;SDS011;19510;54.486;9.046;2022-12-01T06:32:36;47.17;;;20.27;;
16837;SDS011;19510;54.486;9.046;2022-12-01T06:35:02;49.45;;;21.20;;
16837;SDS011;19510;54.486;9.046;2022-12-01T06:37:28;47.57;;;21.80;;
16837;SDS011;19510;54.486;9.046;2022-12-01T06:39:54;52.60;;;21.07;;
16837;SDS011;19510;54.486;9.046;2022-12-01T06:42:20;48.00;;;21.40;;
16837;SDS011;19510;54.486;9.046;2022-12-01T06:44:45;46.07;;;20.80;;
16837;SDS011;19510;54.486;9.046;2022-12-01T06:47:13;45.20;;;21.53;;
16837;SDS011;19510;54.486;9.046;2022-12-01T06:49:40;52.93;;;22.20;;
16837;SDS011;19510;54.486;9.046;2022-12-01T06:52:08;50.63;;;22.73;;
16837;SDS011;19510;54.486;9.046;2022-12-01T06:54:36;48.67;;;21.13;;
16837;SDS011;19510;54.486;9.046;2022-12-01T06:57:07;45.50;;;21.40;;
16837;SDS011;19510;54.486;9.046;2022-12-01T06:59:32;44.87;;;20.57;;
16837;SDS011;19510;54.486;9.046;2022-12-01T07:01:58;49.07;;;20.63;;
16837;SDS011;19510;54.486;9.046;2022-12-01T07:04:24;47.87;;;21.17;;
16837;SDS011;19510;54.486;9.046;2022-12-01T07:06:50;49.10;;;20.47;;
16837;SDS011;19510;54.486;9.046;2022-12-01T07:09:15;46.80;;;21.37;;
16837;SDS011;19510;54.486;9.046;2022-12-01T07:11:41;46.50;;;21.53;;
16837;SDS011;19510;54.486;9.046;2022-12-01T07:14:12;46.13;;;20.07;;
16837;SDS011;19510;54.486;9.046;2022-12-01T07:16:46;47.90;;;21.80;;
16837;SDS011;19510;54.486;9.046;2022-12-01T07:19:12;48.47;;;21.13;;
16837;SDS011;19510;54.486;9.046;2022-12-01T07:21:37;45.90;;;19.77;;
16837;SDS011;19510;54.486;9.046;2022-12-01T07:24:04;45.60;;;20.27;;
16837;SDS011;19510;54.486;9.046;2022-12-01T07:26:30;45.43;;;19.07;;
16837;SDS011;19510;54.486;9.046;2022-12-01T07:28:55;41.90;;;19.47;;
16837;SDS011;19510;54.486;9.046;2022-12-01T07:31:21;39.10;;;18.43;;
16837;SDS011;19510;54.486;9.046;2022-12-01T07:33:47;44.40;;;19.37;;
16837;SDS011;19510;54.486;9.046;2022-12-01T07:36:15;42.13;;;18.57;;
16837;SDS011;19510;54.486;9.046;2022-12-01T07:38:41;42.57;;;18.93;;
16837;SDS011;19510;54.486;9.046;2022-12-01T07:41:08;42.67;;;18.63;;
16837;SDS011;19510;54.486;9.046;2022-12-01T07:43:38;43.40;;;19.30;;
16837;SDS011;19510;54.486;9.046;2022-12-01T07:46:11;45.87;;;18.63;;
16837;SDS011;19510;54.486;9.046;2022-12-01T07:48:38;37.63;;;17.90;;
16837;SDS011;19510;54.486;9.046;2022-12-01T07:51:08;41.20;;;17.90;;
16837;SDS011;19510;54.486;9.046;2022-12-01T07:53:36;38.03;;;16.40;;
16837;SDS011;19510;54.486;9.046;2022-12-01T07:56:02;44.10;;;18.13;;
16837;SDS011;19510;54.486;9.046;2022-12-01T07:58:29;36.20;;;16.60;;
16837;SDS011;19510;54.486;9.046;2022-12-01T08:00:55;36.77;;;16.13;;
16837;SDS011;19510;54.486;9.046;2022-12-01T08:03:21;36.53;;;16.07;;
16837;SDS011;19510;54.486;9.046;2022-12-01T08:05:56;38.50;;;16.47;;
16837;SDS011;19510;54.486;9.046;2022-12-01T08:08:24;37.33;;;16.63;;
16837;SDS011;19510;54.486;9.046;2022-12-01T08:10:50;36.20;;;16.30;;
16837;SDS011;19510;54.486;9.046;2022-12-01T08:13:17;35.20;;;15.07;;
16837;SDS011;19510;54.486;9.046;2022-12-01T08:15:46;35.97;;;16.73;;
16837;SDS011;19510;54.486;9.046;2022-12-01T08:18:12;31.90;;;14.23;;
16837;SDS011;19510;54.486;9.046;2022-12-01T08:20:37;32.10;;;14.43;;
16837;SDS011;19510;54.486;9.046;2022-12-01T08:23:03;31.13;;;14.60;;
16837;SDS011;19510;54.486;9.046;2022-12-01T08:25:29;32.07;;;15.23;;
16837;SDS011;19510;54.486;9.046;2022-12-01T08:27:55;38.87;;;16.17;;
16837;SDS011;19510;54.486;9.046;2022-12-01T08:30:23;30.87;;;13.23;;
16837;SDS011;19510;54.486;9.046;2022-12-01T08:32:51;35.33;;;14.47;;
16837;SDS011;19510;54.486;9.046;2022-12-01T08:35:20;29.10;;;14.63;;
16837;SDS011;19510;54.486;9.046;2022-12-01T08:37:52;27.17;;;13.00;;
16837;SDS011;19510;54.486;9.046;2022-12-01T08:40:20;30.43;;;13.57;;
16837;SDS011;19510;54.486;9.046;2022-12-01T08:42:46;30.10;;;13.53;;
16837;SDS011;19510;54.486;9.046;2022-12-01T08:45:17;26.90;;;12.53;;
16837;SDS011;19510;54.486;9.046;2022-12-01T08:47:43;24.83;;;11.73;;
16837;SDS011;19510;54.486;9.046;2022-12-01T08:50:09;27.60;;;12.80;;
16837;SDS011;19510;54.486;9.046;2022-12-01T08:52:37;25.10;;;12.67;;
16837;SDS011;19510;54.486;9.046;2022-12-01T08:55:06;27.47;;;13.27;;
16837;SDS011;19510;54.486;9.046;2022-12-01T08:57:33;27.60;;;13.03;;
16837;SDS011;19510;54.486;9.046;2022-12-01T08:59:59;27.77;;;13.80;;
16837;SDS011;19510;54.486;9.046;2022-12-01T09:02:27;28.93;;;13.80;;
16837;SDS011;19510;54.486;9.046;2022-12-01T09:04:54;30.40;;;13.23;;
16837;SDS011;19510;54.486;9.046;2022-12-01T09:07:19;28.77;;;13.40;;
16837;SDS011;19510;54.486;9.046;2022-12-01T09:09:48;27.60;;;12.97;;
16837;SDS011;19510;54.486;9.046;2022-12-01T09:12:15;31.87;;;14.40;;
16837;SDS011;19510;54.486;9.046;2022-12-01T09:14:43;28.97;;;13.40;;
16837;SDS011;19510;54.486;9.046;2022-12-01T09:17:14;26.17;;;12.60;;
16837;SDS011;19510;54.486;9.046;2022-12-01T09:19:43;31.97;;;13.43;;
16837;SDS011;19510;54.486;9.046;2022-12-01T09:22:09;27.70;;;13.60;;
16837;SDS011;19510;54.486;9.046;2022-12-01T09:24:38;32.13;;;13.00;;
16837;SDS011;19510;54.486;9.046;2022-12-01T09:27:04;27.83;;;13.63;;
16837;SDS011;19510;54.486;9.046;2022-12-01T09:29:30;30.48;;;13.35;;
16837;SDS011;19510;54.486;9.046;2022-12-01T09:31:58;29.47;;;13.53;;
16837;SDS011;19510;54.486;9.046;2022-12-01T09:34:27;28.40;;;13.37;;
16837;SDS011;19510;54.486;9.046;2022-12-01T09:36:55;28.97;;;12.90;;
16837;SDS011;19510;54.486;9.046;2022-12-01T09:39:22;30.10;;;13.37;;
16837;SDS011;19510;54.486;9.046;2022-12-01T09:41:53;30.87;;;13.80;;
16837;SDS011;19510;54.486;9.046;2022-12-01T09:49:58;30.70;;;14.50;;
16837;SDS011;19510;54.486;9.046;2022-12-01T09:52:33;33.63;;;13.53;;
16837;SDS011;19510;54.486;9.046;2022-12-01T09:55:09;27.50;;;13.20;;
16837;SDS011;19510;54.486;9.046;2022-12-01T09:57:40;32.20;;;13.33;;
16837;SDS011;19510;54.486;9.046;2022-12-01T10:05:23;33.13;;;13.87;;
16837;SDS011;19510;54.486;9.046;2022-12-01T10:07:57;33.28;;;15.18;;
16837;SDS011;19510;54.486;9.046;2022-12-01T10:10:29;40.77;;;15.10;;
16837;SDS011;19510;54.486;9.046;2022-12-01T10:13:25;32.43;;;14.63;;
16837;SDS011;19510;54.486;9.046;2022-12-01T10:15:53;33.50;;;15.02;;
16837;SDS011;19510;54.486;9.046;2022-12-01T10:30:35;32.33;;;14.00;;
16837;SDS011;19510;54.486;9.046;2022-12-01T10:35:45;33.50;;;15.00;;
16837;SDS011;19510;54.486;9.046;2022-12-01T10:38:29;38.33;;;15.88;;
16837;SDS011;19510;54.486;9.046;2022-12-01T10:41:01;32.53;;;14.87;;
16837;SDS011;19510;54.486;9.046;2022-12-01T10:43:40;31.37;;;15.00;;
16837;SDS011;19510;54.486;9.046;2022-12-01T10:49:07;29.80;;;14.25;;
16837;SDS011;19510;54.486;9.046;2022-12-01T10:51:45;33.92;;;16.17;;
16837;SDS011;19510;54.486;9.046;2022-12-01T10:54:15;34.97;;;13.87;;
16837;SDS011;19510;54.486;9.046;2022-12-01T10:56:45;32.92;;;14.88;;
16837;SDS011;19510;54.486;9.046;2022-12-01T10:59:21;33.90;;;14.93;;
16837;SDS011;19510;54.486;9.046;2022-12-01T11:01:50;35.50;;;15.27;;
16837;SDS011;19510;54.486;9.046;2022-12-01T11:07:13;28.38;;;13.65;;
16837;SDS011;19510;54.486;9.046;2022-12-01T11:10:46;28.13;;;14.20;;
16837;SDS011;19510;54.486;9.046;2022-12-01T11:12:55;29.70;;;14.18;;
16837;SDS011;19510;54.486;9.046;2022-12-01T11:15:53;31.27;;;14.30;;
16837;SDS011;19510;54.486;9.046;2022-12-01T11:18:36;29.57;;;13.17;;
16837;SDS011;19510;54.486;9.046;2022-12-01T11:21:12;30.25;;;13.80;;
16837;SDS011;19510;54.486;9.046;2022-12-01T11:23:51;32.13;;;14.77;;
16837;SDS011;19510;54.486;9.046;2022-12-01T11:29:35;48.50;;;24.50;;
16837;SDS011;19510;54.486;9.046;2022-12-01T11:31:49;30.70;;;14.90;;
16837;SDS011;19510;54.486;9.046;2022-12-01T11:34:22;34.95;;;14.57;;
16837;SDS011;19510;54.486;9.046;2022-12-01T11:37:00;28.97;;;13.70;;
16837;SDS011;19510;54.486;9.046;2022-12-01T11:39:40;32.45;;;14.52;;
16837;SDS011;19510;54.486;9.046;2022-12-01T11:44:38;30.85;;;14.55;;
16837;SDS011;19510;54.486;9.046;2022-12-01T11:47:16;28.90;;;13.48;;
16837;SDS011;19510;54.486;9.046;2022-12-01T11:49:46;31.92;;;14.30;;
16837;SDS011;19510;54.486;9.046;2022-12-01T11:54:55;34.55;;;15.25;;
16837;SDS011;19510;54.486;9.046;2022-12-01T11:57:25;33.55;;;15.02;;
16837;SDS011;19510;54.486;9.046;2022-12-01T11:59:55;31.73;;;14.70;;
16837;SDS011;19510;54.486;9.046;2022-12-01T12:08:23;31.63;;;14.95;;
16837;SDS011;19510;54.486;9.046;2022-12-01T12:11:18;35.83;;;14.77;;
16837;SDS011;19510;54.486;9.046;2022-12-01T12:13:59;28.38;;;13.93;;
16837;SDS011;19510;54.486;9.046;2022-12-01T12:22:46;34.70;;;15.13;;
16837;SDS011;19510;54.486;9.046;2022-12-01T12:25:31;32.28;;;15.40;;
16837;SDS011;19510;54.486;9.046;2022-12-01T12:28:35;32.10;;;14.70;;
16837;SDS011;19510;54.486;9.046;2022-12-01T12:39:36;28.35;;;14.18;;
16837;SDS011;19510;54.486;9.046;2022-12-01T12:42:15;31.52;;;14.00;;
16837;SDS011;19510;54.486;9.046;2022-12-01T12:45:38;30.02;;;14.40;;
16837;SDS011;19510;54.486;9.046;2022-12-01T12:53:16;31.10;;;13.77;;
16837;SDS011;19510;54.486;9.046;2022-12-01T12:55:45;31.58;;;14.55;;
16837;SDS011;19510;54.486;9.046;2022-12-01T12:58:19;31.55;;;14.45;;
16837;SDS011;19510;54.486;9.046;2022-12-01T13:00:52;32.58;;;14.60;;
16837;SDS011;19510;54.486;9.046;2022-12-01T13:03:49;28.73;;;13.02;;
16837;SDS011;19510;54.486;9.046;2022-12-01T13:11:55;32.37;;;13.87;;
16837;SDS011;19510;54.486;9.046;2022-12-01T13:14:29;29.97;;;14.57;;
16837;SDS011;19510;54.486;9.046;2022-12-01T13:17:07;29.98;;;13.80;;
16837;SDS011;19510;54.486;9.046;2022-12-01T13:20:12;30.52;;;13.63;;
16837;SDS011;19510;54.486;9.046;2022-12-01T13:22:45;32.28;;;14.65;;
16837;SDS011;19510;54.486;9.046;2022-12-01T13:25:12;33.65;;;14.20;;
16837;SDS011;19510;54.486;9.046;2022-12-01T13:27:54;28.25;;;13.30;;
16837;SDS011;19510;54.486;9.046;2022-12-01T13:30:23;30.95;;;14.18;;
16837;SDS011;19510;54.486;9.046;2022-12-01T13:33:00;32.03;;;14.75;;
16837;SDS011;19510;54.486;9.046;2022-12-01T13:35:31;32.65;;;15.10;;
16837;SDS011;19510;54.486;9.046;2022-12-01T13:40:43;30.47;;;13.43;;
16837;SDS011;19510;54.486;9.046;2022-12-01T13:43:19;28.08;;;14.07;;
16837;SDS011;19510;54.486;9.046;2022-12-01T13:45:49;31.80;;;14.97;;
16837;SDS011;19510;54.486;9.046;2022-12-01T13:48:29;31.40;;;13.82;;
16837;SDS011;19510;54.486;9.046;2022-12-01T13:51:14;27.90;;;13.63;;
16837;SDS011;19510;54.486;9.046;2022-12-01T14:02:23;27.52;;;13.43;;
16837;SDS011;19510;54.486;9.046;2022-12-01T14:04:50;29.10;;;14.48;;
16837;SDS011;19510;54.486;9.046;2022-12-01T14:10:08;30.15;;;14.38;;
16837;SDS011;19510;54.486;9.046;2022-12-01T14:12:39;29.80;;;12.67;;
16837;SDS011;19510;54.486;9.046;2022-12-01T14:18:03;29.50;;;13.52;;
16837;SDS011;19510;54.486;9.046;2022-12-01T14:20:34;30.73;;;15.10;;
16837;SDS011;19510;54.486;9.046;2022-12-01T14:23:24;34.40;;;15.13;;
16837;SDS011;19510;54.486;9.046;2022-12-01T14:34:01;31.55;;;14.43;;
16837;SDS011;19510;54.486;9.046;2022-12-01T14:36:42;37.17;;;15.70;;
16837;SDS011;19510;54.486;9.046;2022-12-01T14:41:48;31.43;;;15.90;;
16837;SDS011;19510;54.486;9.046;2022-12-01T14:46:59;46.60;;;20.07;;
16837;SDS011;19510;54.486;9.046;2022-12-01T14:49:39;36.87;;;17.80;;
16837;SDS011;19510;54.486;9.046;2022-12-01T14:52:12;40.53;;;17.58;;
16837;SDS011;19510;54.486;9.046;2022-12-01T14:54:48;41.40;;;18.23;;
16837;SDS011;19510;54.486;9.046;2022-12-01T14:57:19;42.33;;;18.73;;
16837;SDS011;19510;54.486;9.046;2022-12-01T15:00:15;50.47;;;21.25;;
16837;SDS011;19510;54.486;9.046;2022-12-01T15:02:47;57.40;;;23.23;;
16837;SDS011;19510;54.486;9.046;2022-12-01T15:05:21;56.83;;;22.05;;
16837;SDS011;19510;54.486;9.046;2022-12-01T15:07:52;53.47;;;20.30;;
16837;SDS011;19510;54.486;9.046;2022-12-01T15:12:53;48.20;;;19.77;;
16837;SDS011;19510;54.486;9.046;2022-12-01T15:15:20;54.50;;;22.40;;
16837;SDS011;19510;54.486;9.046;2022-12-01T15:17:52;61.10;;;23.63;;
16837;SDS011;19510;54.486;9.046;2022-12-01T15:20:32;71.65;;;29.60;;
16837;SDS011;19510;54.486;9.046;2022-12-01T15:23:06;65.03;;;22.40;;
16837;SDS011;19510;54.486;9.046;2022-12-01T15:25:42;73.80;;;27.53;;
16837;SDS011;19510;54.486;9.046;2022-12-01T15:28:19;62.47;;;24.13;;
16837;SDS011;19510;54.486;9.046;2022-12-01T15:30:54;62.55;;;25.15;;
16837;SDS011;19510;54.486;9.046;2022-12-01T15:33:22;58.35;;;23.45;;
16837;SDS011;19510;54.486;9.046;2022-12-01T15:35:49;74.03;;;28.42;;
16837;SDS011;19510;54.486;9.046;2022-12-01T15:38:19;117.78;;;44.05;;
16837;SDS011;19510;54.486;9.046;2022-12-01T15:40:49;73.67;;;28.30;;
16837;SDS011;19510;54.486;9.046;2022-12-01T15:45:45;83.67;;;39.00;;
16837;SDS011;19510;54.486;9.046;2022-12-01T15:48:34;55.30;;;22.40;;
16837;SDS011;19510;54.486;9.046;2022-12-01T15:56:15;59.53;;;24.90;;
16837;SDS011;19510;54.486;9.046;2022-12-01T15:58:48;50.60;;;20.93;;
16837;SDS011;19510;54.486;9.046;2022-12-01T16:01:16;51.30;;;19.60;;
16837;SDS011;19510;54.486;9.046;2022-12-01T16:06:25;69.80;;;30.33;;
16837;SDS011;19510;54.486;9.046;2022-12-01T16:09:17;64.03;;;25.33;;
16837;SDS011;19510;54.486;9.046;2022-12-01T16:12:02;47.03;;;18.60;;
16837;SDS011;19510;54.486;9.046;2022-12-01T16:14:29;43.20;;;18.03;;
16837;SDS011;19510;54.486;9.046;2022-12-01T16:16:57;49.50;;;19.30;;
16837;SDS011;19510;54.486;9.046;2022-12-01T16:19:28;36.20;;;17.15;;
16837;SDS011;19510;54.486;9.046;2022-12-01T16:22:00;42.07;;;18.40;;
16837;SDS011;19510;54.486;9.046;2022-12-01T16:24:46;42.00;;;18.90;;
16837;SDS011;19510;54.486;9.046;2022-12-01T16:27:21;52.07;;;21.80;;
16837;SDS011;19510;54.486;9.046;2022-12-01T16:32:32;50.67;;;20.37;;
16837;SDS011;19510;54.486;9.046;2022-12-01T16:35:20;44.13;;;18.07;;
16837;SDS011;19510;54.486;9.046;2022-12-01T16:37:55;48.93;;;19.97;;
16837;SDS011;19510;54.486;9.046;2022-12-01T16:40:21;50.70;;;20.70;;
16837;SDS011;19510;54.486;9.046;2022-12-01T16:42:52;49.93;;;20.03;;
16837;SDS011;19510;54.486;9.046;2022-12-01T16:45:18;49.00;;;18.73;;
16837;SDS011;19510;54.486;9.046;2022-12-01T16:47:45;41.07;;;18.50;;
16837;SDS011;19510;54.486;9.046;2022-12-01T16:50:14;45.20;;;18.17;;
16837;SDS011;19510;54.486;9.046;2022-12-01T16:52:41;43.53;;;18.17;;
16837;SDS011;19510;54.486;9.046;2022-12-01T16:55:18;47.73;;;18.43;;
16837;SDS011;19510;54.486;9.046;2022-12-01T16:57:55;42.95;;;18.42;;
16837;SDS011;19510;54.486;9.046;2022-12-01T17:00:22;44.97;;;19.53;;
16837;SDS011;19510;54.486;9.046;2022-12-01T17:02:48;42.67;;;17.03;;
16837;SDS011;19510;54.486;9.046;2022-12-01T17:05:16;49.23;;;18.97;;
16837;SDS011;19510;54.486;9.046;2022-12-01T17:07:42;43.93;;;18.30;;
16837;SDS011;19510;54.486;9.046;2022-12-01T17:10:08;58.80;;;21.87;;
16837;SDS011;19510;54.486;9.046;2022-12-01T17:12:37;78.97;;;25.27;;
16837;SDS011;19510;54.486;9.046;2022-12-01T17:15:03;54.47;;;20.90;;
16837;SDS011;19510;54.486;9.046;2022-12-01T17:17:32;50.73;;;21.60;;
16837;SDS011;19510;54.486;9.046;2022-12-01T17:19:58;48.60;;;19.87;;